createdAt,value
2022-08-17T00:03:23.477Z,59.75
2022-08-17T00:07:16.716Z,60.54
2022-08-17T00:11:13.574Z,61.09
2022-08-17T00:15:10.352Z,61.37
2022-08-17T00:19:08.454Z,60.97
2022-08-17T00:23:10.820Z,61.24
2022-08-17T00:27:03.929Z,62.07
2022-08-17T00:30:56.737Z,61.86
2022-08-17T00:34:49.301Z,61.85
2022-08-17T00:38:42.664Z,62.40
2022-08-17T00:42:35.416Z,62.63
2022-08-17T00:46:32.899Z,61.26
2022-08-17T00:50:25.307Z,62.47
2022-08-17T00:54:24.570Z,62.63
2022-08-17T00:58:17.166Z,63.62
2022-08-17T01:02:28.947Z,63.38
2022-08-17T01:06:28.452Z,63.57
2022-08-17T01:10:58.730Z,63.66
2022-08-17T01:14:40.992Z,63.54
2022-08-17T01:18:36.237Z,63.65
2022-08-17T01:22:28.835Z,64.42
2022-08-17T01:26:22.246Z,64.41
2022-08-17T01:30:56.510Z,64.34
2022-08-17T01:34:33.471Z,63.51
2022-08-17T01:38:38.151Z,63.02
2022-08-17T01:42:39.014Z,63.82
2022-08-17T01:46:35.094Z,64.38
2022-08-17T01:50:32.049Z,64.00
2022-08-17T01:54:25.431Z,64.01
2022-08-17T01:58:18.853Z,63.82
2022-08-17T02:02:11.497Z,63.82
2022-08-17T02:06:27.518Z,64.36
2022-08-17T02:10:20.916Z,64.84
2022-08-17T02:14:14.255Z,65.40
2022-08-17T02:18:06.974Z,64.91
2022-08-17T02:21:59.469Z,65.17
2022-08-17T02:25:52.477Z,64.53
2022-08-17T02:29:45.101Z,64.14
2022-08-17T02:33:43.053Z,64.97
2022-08-17T02:37:36.882Z,65.20
2022-08-17T02:41:29.607Z,65.67
2022-08-17T02:45:24.082Z,65.58
2022-08-17T02:49:16.869Z,66.00
2022-08-17T02:53:09.561Z,67.03
2022-08-17T02:57:03.616Z,66.46
2022-08-17T03:00:56.957Z,66.28
2022-08-17T03:04:49.844Z,67.19
2022-08-17T03:08:42.520Z,67.14
2022-08-17T03:12:38.835Z,68.60
2022-08-17T03:16:31.413Z,67.88
2022-08-17T03:20:25.695Z,66.66
2022-08-17T03:24:18.144Z,66.48
2022-08-17T03:28:12.255Z,67.27
2022-08-17T03:32:13.033Z,67.94
2022-08-17T03:36:07.085Z,67.77
2022-08-17T03:39:59.933Z,68.24
2022-08-17T03:43:52.677Z,69.12
2022-08-17T03:48:03.906Z,70.30
2022-08-17T03:52:16.565Z,70.41
2022-08-17T03:56:28.283Z,70.07
2022-08-17T04:00:20.913Z,69.08
2022-08-17T04:04:14.182Z,69.52
2022-08-17T04:08:06.825Z,68.96
2022-08-17T04:12:02.276Z,69.27
2022-08-17T04:15:59.330Z,68.45
2022-08-17T04:19:52.607Z,68.16
2022-08-17T04:23:45.864Z,68.78
2022-08-17T04:27:38.475Z,67.87
2022-08-17T04:31:31.065Z,66.62
2022-08-17T04:35:27.415Z,65.40
2022-08-17T04:39:20.043Z,63.19
2022-08-17T04:43:18.748Z,62.02
2022-08-17T04:47:11.373Z,60.88
2022-08-17T04:51:10.011Z,59.60
2022-08-17T04:55:04.181Z,58.23
2022-08-17T04:59:04.181Z,57.99
2022-08-17T05:02:57.090Z,56.21
2022-08-17T05:06:50.123Z,56.63
2022-08-17T05:10:45.133Z,56.02
2022-08-17T05:14:39.604Z,54.22
2022-08-17T05:18:32.659Z,51.19
2022-08-17T05:22:25.132Z,51.39
2022-08-17T05:26:25.533Z,47.82
2022-08-17T05:30:20.244Z,49.11
2022-08-17T05:34:12.841Z,47.83
2022-08-17T05:38:08.044Z,45.21
2022-08-17T05:42:02.562Z,43.69
2022-08-17T05:46:16.387Z,44.41
2022-08-17T05:50:10.540Z,43.38
2022-08-17T05:54:23.231Z,44.21
2022-08-17T05:58:31.303Z,46.63
2022-08-17T06:03:09.044Z,45.40
2022-08-17T06:07:25.012Z,44.28
2022-08-17T06:11:29.027Z,42.65
2022-08-17T06:15:46.769Z,40.95
2022-08-17T06:19:59.893Z,40.70
2022-08-17T06:23:58.191Z,41.05
2022-08-17T06:28:09.076Z,42.09
2022-08-17T06:32:09.960Z,42.51
2022-08-17T06:36:23.866Z,41.43
2022-08-17T06:40:53.211Z,42.57
2022-08-17T06:45:03.571Z,43.42
2022-08-17T06:49:15.221Z,43.21
2022-08-17T06:53:29.530Z,41.74
2022-08-17T06:57:29.473Z,39.03
2022-08-17T07:01:28.612Z,39.84
2022-08-17T07:06:03.447Z,39.82
2022-08-17T07:10:00.166Z,41.25
2022-08-17T07:14:20.201Z,41.06
2022-08-17T07:18:12.882Z,43.65
2022-08-17T07:22:06.266Z,42.70
2022-08-17T07:26:09.281Z,41.07
2022-08-17T07:30:10.706Z,41.72
2022-08-17T07:34:08.139Z,40.33
2022-08-17T07:38:24.820Z,41.32
2022-08-17T07:42:20.119Z,40.00
2022-08-17T07:46:53.881Z,40.56
2022-08-17T07:50:49.366Z,42.00
2022-08-17T07:54:43.414Z,42.14
2022-08-17T07:58:36.171Z,43.27
2022-08-17T08:02:41.367Z,42.28
2022-08-17T08:06:48.454Z,42.15
2022-08-17T08:10:45.571Z,42.64
2022-08-17T08:14:39.809Z,42.89
2022-08-17T08:18:54.818Z,43.85
2022-08-17T08:23:09.364Z,43.35
2022-08-17T08:27:27.967Z,43.87
2022-08-17T08:31:54.682Z,44.05
2022-08-17T08:36:58.125Z,44.60
2022-08-17T08:40:48.847Z,44.24
2022-08-17T08:45:07.869Z,44.11
2022-08-17T08:50:01.393Z,44.67
2022-08-17T08:54:28.436Z,44.07
2022-08-17T08:58:41.602Z,43.24
2022-08-17T09:02:44.141Z,43.83
2022-08-17T09:06:40.084Z,42.74
2022-08-17T09:10:49.808Z,42.40
2022-08-17T09:14:57.248Z,41.53
2022-08-17T09:19:00.224Z,40.73
2022-08-17T09:23:32.782Z,41.45
2022-08-17T09:27:35.269Z,41.53
2022-08-17T09:31:48.803Z,41.69
2022-08-17T09:35:48.346Z,41.04
2022-08-17T09:39:48.662Z,39.44
2022-08-17T09:43:51.049Z,40.18
2022-08-17T09:47:50.666Z,40.36
2022-08-17T09:51:57.234Z,40.01
2022-08-17T09:56:06.432Z,37.93
2022-08-17T10:00:16.798Z,38.97
2022-08-17T10:04:29.618Z,40.01
2022-08-17T10:08:27.801Z,40.53
2022-08-17T10:12:39.650Z,39.42
2022-08-17T10:16:52.296Z,40.19
2022-08-17T10:21:21.825Z,39.34
2022-08-17T10:25:53.558Z,39.89
2022-08-17T10:29:53.560Z,39.80
2022-08-17T10:33:59.999Z,39.12
2022-08-17T10:38:26.881Z,39.31
2022-08-17T10:42:32.695Z,38.75
2022-08-17T10:46:45.111Z,37.40
2022-08-17T10:50:56.299Z,37.87
2022-08-17T10:54:51.882Z,36.27
2022-08-17T10:59:00.389Z,36.54
2022-08-17T11:02:57.646Z,36.37
2022-08-17T11:07:02.462Z,35.83
2022-08-17T11:11:37.627Z,35.89
2022-08-17T11:15:59.483Z,34.64
2022-08-17T11:20:19.850Z,34.09
2022-08-17T11:24:15.816Z,34.09
2022-08-17T11:28:18.028Z,34.94
2022-08-17T11:32:28.111Z,35.10
2022-08-17T11:36:40.180Z,35.19
2022-08-17T11:40:43.284Z,35.07
2022-08-17T11:44:59.029Z,35.23
2022-08-17T11:49:33.295Z,34.61
2022-08-17T11:53:37.988Z,34.67
2022-08-17T11:57:30.704Z,33.91
2022-08-17T12:01:23.513Z,33.87
2022-08-17T12:05:22.808Z,34.20
2022-08-17T12:09:24.785Z,34.69
2022-08-17T12:13:19.291Z,35.36
2022-08-17T12:17:22.441Z,34.66
2022-08-17T12:21:53.979Z,34.04
2022-08-17T12:26:01.924Z,34.31
2022-08-17T12:29:55.679Z,33.94
2022-08-17T12:33:50.251Z,33.10
2022-08-17T12:37:47.268Z,33.53
2022-08-17T12:41:44.489Z,33.72
2022-08-17T12:45:39.854Z,34.46
2022-08-17T12:49:38.446Z,33.32
2022-08-17T12:53:35.274Z,32.28
2022-08-17T12:57:39.412Z,32.03
2022-08-17T13:01:35.203Z,33.12
2022-08-17T13:05:37.823Z,33.41
2022-08-17T13:09:35.350Z,33.26
2022-08-17T13:13:39.178Z,34.62
2022-08-17T13:17:36.386Z,34.21
2022-08-17T13:21:30.773Z,33.68
2022-08-17T13:25:23.929Z,33.95
2022-08-17T13:29:27.371Z,33.68
2022-08-17T13:33:44.901Z,32.72
2022-08-17T13:37:37.908Z,33.09
2022-08-17T13:41:35.430Z,33.45
2022-08-17T13:45:40.042Z,33.75
2022-08-17T13:49:48.288Z,32.08
2022-08-17T13:53:41.672Z,32.94
2022-08-17T13:57:35.381Z,33.04
2022-08-17T14:01:34.404Z,33.44
2022-08-17T14:05:27.430Z,32.63
2022-08-17T14:09:24.405Z,33.07
2022-08-17T14:13:17.032Z,33.04
2022-08-17T14:17:10.743Z,32.50
2022-08-17T14:21:03.977Z,32.57
2022-08-17T14:24:57.481Z,32.39
2022-08-17T14:28:56.632Z,32.74
2022-08-17T14:32:52.106Z,32.89
2022-08-17T14:36:45.573Z,32.31
2022-08-17T14:40:41.398Z,32.10
2022-08-17T14:44:34.015Z,32.22
2022-08-17T14:48:26.608Z,32.35
2022-08-17T14:52:23.358Z,32.66
2022-08-17T14:56:16.686Z,32.31
2022-08-17T15:00:10.197Z,32.67
2022-08-17T15:04:02.895Z,31.93
2022-08-17T15:07:55.853Z,32.20
2022-08-17T15:11:48.427Z,31.72
2022-08-17T15:15:40.978Z,31.69
2022-08-17T15:19:33.570Z,31.48
2022-08-17T15:23:27.163Z,31.50
2022-08-17T15:27:31.499Z,31.82
2022-08-17T15:31:31.781Z,31.91
2022-08-17T15:35:29.127Z,32.19
2022-08-17T15:39:22.298Z,31.88
2022-08-17T15:43:27.673Z,31.64
2022-08-17T15:47:20.855Z,31.59
2022-08-17T15:51:24.986Z,32.23
2022-08-17T15:55:23.841Z,31.92
2022-08-17T15:59:16.900Z,32.62
2022-08-17T16:03:45.302Z,32.80
2022-08-17T16:07:26.610Z,32.24
2022-08-17T16:11:21.355Z,32.83
2022-08-17T16:15:14.071Z,32.56
2022-08-17T16:19:06.875Z,32.12
2022-08-17T16:22:59.712Z,31.41
2022-08-17T16:26:52.211Z,32.00
2022-08-17T16:30:45.000Z,32.60
2022-08-17T16:34:37.585Z,32.12
2022-08-17T16:38:30.235Z,32.32
2022-08-17T16:42:29.050Z,33.26
2022-08-17T16:46:21.508Z,33.72
2022-08-17T16:50:18.055Z,34.08
2022-08-17T16:54:14.688Z,36.11
2022-08-17T16:58:10.266Z,35.55
2022-08-17T17:02:10.173Z,35.85
2022-08-17T17:06:18.717Z,37.01
2022-08-17T17:10:16.562Z,37.50
2022-08-17T17:14:17.067Z,36.78
2022-08-17T17:18:12.990Z,37.19
2022-08-17T17:22:15.290Z,36.95
2022-08-17T17:26:50.216Z,36.28
2022-08-17T17:31:08.358Z,36.84
2022-08-17T17:35:07.260Z,36.65
2022-08-17T17:39:24.554Z,36.54
2022-08-17T17:43:38.748Z,37.10
2022-08-17T17:47:32.453Z,37.28
2022-08-17T17:52:09.075Z,37.34
2022-08-17T17:55:48.349Z,37.56
2022-08-17T17:59:48.883Z,38.63
2022-08-17T18:04:20.904Z,38.52
2022-08-17T18:08:49.579Z,39.73
2022-08-17T18:12:51.533Z,39.83
2022-08-17T18:16:48.181Z,39.91
2022-08-17T18:20:43.333Z,40.26
2022-08-17T18:24:54.230Z,39.85
2022-08-17T18:28:51.046Z,40.03
2022-08-17T18:32:46.725Z,40.74
2022-08-17T18:36:40.020Z,41.15
2022-08-17T18:40:37.697Z,40.87
2022-08-17T18:44:37.551Z,40.24
2022-08-17T18:48:38.547Z,41.51
2022-08-17T18:52:33.935Z,41.78
2022-08-17T18:56:31.044Z,42.11
2022-08-17T19:00:41.754Z,41.96
2022-08-17T19:04:39.454Z,41.92
2022-08-17T19:08:31.868Z,42.38
2022-08-17T19:12:38.207Z,42.56
2022-08-17T19:16:58.148Z,42.87
2022-08-17T19:21:04.307Z,42.07
2022-08-17T19:25:11.127Z,43.53
2022-08-17T19:29:16.434Z,43.89
2022-08-17T19:33:12.624Z,43.51
2022-08-17T19:37:22.606Z,43.85
2022-08-17T19:41:33.023Z,44.51
2022-08-17T19:45:40.319Z,44.06
2022-08-17T19:50:00.911Z,44.50
2022-08-17T19:54:15.521Z,44.69
2022-08-17T19:58:46.139Z,45.83
2022-08-17T20:03:00.251Z,46.31
2022-08-17T20:06:53.360Z,45.72
2022-08-17T20:11:02.539Z,45.97
2022-08-17T20:15:00.154Z,46.34
2022-08-17T20:19:01.236Z,45.97
2022-08-17T20:22:59.819Z,45.95
2022-08-17T20:26:59.617Z,46.63
2022-08-17T20:30:52.968Z,46.82
2022-08-17T20:34:46.765Z,46.28
2022-08-17T20:38:52.795Z,46.83
2022-08-17T20:42:45.372Z,46.90
2022-08-17T20:46:38.122Z,46.89
2022-08-17T20:50:36.196Z,47.02
2022-08-17T20:54:47.934Z,46.99
2022-08-17T20:58:46.823Z,46.06
2022-08-17T21:02:41.839Z,47.10
2022-08-17T21:06:34.476Z,48.04
2022-08-17T21:10:26.881Z,48.09
2022-08-17T21:14:52.402Z,47.40
2022-08-17T21:19:00.322Z,47.81
2022-08-17T21:23:07.800Z,46.88
2022-08-17T21:27:19.354Z,46.32
2022-08-17T21:31:38.950Z,46.31
2022-08-17T21:35:47.399Z,47.44
2022-08-17T21:39:41.161Z,47.76
2022-08-17T21:43:36.600Z,48.19
2022-08-17T21:47:30.948Z,49.16
2022-08-17T21:51:28.260Z,48.78
2022-08-17T21:55:29.801Z,48.44
2022-08-17T21:59:26.284Z,48.14
2022-08-17T22:03:26.138Z,48.67
2022-08-17T22:07:35.121Z,48.48
2022-08-17T22:11:28.517Z,48.51
2022-08-17T22:15:20.995Z,49.20
2022-08-17T22:19:14.413Z,49.19
2022-08-17T22:23:32.244Z,49.74
2022-08-17T22:27:45.639Z,49.71
2022-08-17T22:31:56.301Z,49.71
2022-08-17T22:35:50.011Z,49.99
2022-08-17T22:39:45.431Z,50.36
2022-08-17T22:43:38.575Z,50.13
2022-08-17T22:47:39.717Z,49.54
2022-08-17T22:51:32.048Z,49.67
2022-08-17T22:55:44.419Z,49.68
2022-08-17T22:59:45.555Z,49.67
2022-08-17T23:04:04.139Z,49.60
2022-08-17T23:07:56.588Z,49.87
2022-08-17T23:11:53.136Z,49.23
2022-08-17T23:15:46.405Z,50.44
2022-08-17T23:19:39.341Z,50.38
2022-08-17T23:23:31.808Z,49.99
2022-08-17T23:27:28.984Z,50.74
2022-08-17T23:31:25.689Z,51.43
2022-08-17T23:35:18.706Z,53.47
2022-08-17T23:39:11.083Z,55.97
2022-08-17T23:43:09.805Z,57.92
2022-08-17T23:47:18.654Z,59.55
2022-08-17T23:51:19.190Z,56.61
2022-08-17T23:55:13.493Z,55.30
2022-08-17T23:59:06.026Z,54.89
